Warnock, OH (43967)

9:43 PM EDT on July 31, 2014 (GMT -0400)
Shadyside, Ohio (KOHSHADY2) Elev 669 ft | 39.98 °N, 80.74 °W | Change Station

Current weather conditions updated 4 seconds ago

Partly Cloudy
Partly Cloudy
71.3 °F
Feels Like 71 °F
N
0.0
Wind Variable Wind from SW
Gusts 0.0 mph

Tomorrow is forecast to be nearly the same temperature as today. Partly cloudy, chance of a thunderstorm.

Today
High -- | Low -- °F
--% Chance of Precip.
Yesterday
High -- | Low -- °F
Precip. -- in
6:21 AM 8:38 PM
Waxing Crescent, 22% visible
Pressure 30.11 in
Visibility 10.0 miles
Clouds Few 5000 ft
Heat Index 71 °F
Dew Point 66 °F
Humidity 82%
Rainfall 0.00 in
Snow Depth Not available.
UV 0 out of 12
Pollen 6.20 out of 12
Air Quality Not available.
Flu Activity Not available.
METAR KHLG 010053Z 19005KT 10SM FEW050 22/16 A3011 RMK AO2 SLP194 T02170161

More Conditions Fewer Conditions

Pressure 30.11 in
Visibility 10.0 miles
Clouds Few 5000 ft
Heat Index 71 °F
Dew Point 66 °F
Humidity 82%
Rainfall 0.00 in
Snow Depth Not available.
UV 0 out of 12
Pollen 6.20 out of 12
Air Quality Not available.
Flu Activity Not available.
METAR KHLG 010053Z 19005KT 10SM FEW050 22/16 A3011 RMK AO2 SLP194 T02170161

More Conditions Fewer Conditions

10-Day Weather Forecast

Almanac

Astronomy

Jul. 31, 2014 Rise Set
Actual Time 6:21 AM EDT 8:38 PM EDT
Civil Twilight 5:50 AM EDT 9:08 PM EDT
Nautical Twilight 5:13 AM EDT 9:46 PM EDT
Astronomical Twilight 4:31 AM EDT 10:27 PM EDT
Moon 10:47 AM EDT (7/31) 10:50 PM EDT (7/31)
Length of Visible Light 15h 18m
Length of Day
14h 17m
Tomorrow will be 1m 58s shorter.
Waxing Crescent, 22% of the Moon is Illuminated
Today
Waxing Crescent
Aug 3
First Quarter
Aug 10
Full
Aug 17
Last Quarter
Aug 25
New

Today's Extremes

State Highs State Lows

Community

WunderPhotos

Upload Photos

1,739,490 photos uploaded!

Nearby

Snow Depth

Station Depth Elevation
No new snow has been reported.

Earthquake Activity

City Distance Mag. Time & Date
No recent earthquake activity has been reported nearby.
Minimum magnitude displayed is 2.5.

Coastal Water Temperatures

Place Temperature
No Stations Reporting

Nearby Weather Stations

Station Location Temp. Heat Index Dew Point Humidity Wind Precip. Elev Updated Type
Shadyside, Ohio, Shadyside, OH 71.3 °F 71 °F 66 °F 82% SW  at  0.0 mph 0.00 in / hr 669 ft 9:43 PM EDT Rapid Fire
Crawford Heights, Martins Ferry, OH 70.0 °F - 62 °F 77% South  at  0.0 mph - / hr 1109 ft 9:39 PM EDT Normal
Jerusalem, Jerusalem, OH 64.4 °F - 62 °F 92% SSW  at  0.0 mph 0.00 in / hr 1253 ft 9:43 PM EDT Rapid Fire
Whitmar Hills, Wheeling, WV 64.4 °F - 63 °F 96% ENE  at  0.0 mph 0.01 in / hr 1060 ft 9:40 PM EDT Normal
Clinton Hills, Triadelphia, WV 68.5 °F - 65 °F 89% WSW  at  0.0 mph - / hr 1122 ft 9:37 PM EDT Normal
West Alexander, West Alexander, PA 64.2 °F - 62 °F 94% ENE  at  0.0 mph - / hr 1191 ft 9:36 PM EDT Normal

Show More Stations Show Fewer Stations